sensor_id;sensor_type;location;lat;lon;timestamp;temperature;humidity
76203;DHT22;64985;46.364;17.008;2023-08-07T00:02:23;11.90;99.90
76203;DHT22;64985;46.364;17.008;2023-08-07T00:05:25;11.90;99.90
76203;DHT22;64985;46.364;17.008;2023-08-07T00:08:28;11.90;99.90
76203;DHT22;64985;46.364;17.008;2023-08-07T00:11:30;11.90;99.90
76203;DHT22;64985;46.364;17.008;2023-08-07T00:14:32;11.80;99.90
76203;DHT22;64985;46.364;17.008;2023-08-07T00:17:34;11.60;99.90
76203;DHT22;64985;46.364;17.008;2023-08-07T00:20:36;11.60;99.90
76203;DHT22;64985;46.364;17.008;2023-08-07T00:23:38;11.70;99.90
76203;DHT22;64985;46.364;17.008;2023-08-07T00:26:40;11.60;99.90
76203;DHT22;64985;46.364;17.008;2023-08-07T00:29:43;11.50;99.90
76203;DHT22;64985;46.364;17.008;2023-08-07T00:32:45;11.50;99.90
76203;DHT22;64985;46.364;17.008;2023-08-07T00:35:47;11.40;99.90
76203;DHT22;64985;46.364;17.008;2023-08-07T00:38:50;11.50;99.90
76203;DHT22;64985;46.364;17.008;2023-08-07T00:41:52;11.50;99.90
76203;DHT22;64985;46.364;17.008;2023-08-07T00:44:54;11.40;99.90
76203;DHT22;64985;46.364;17.008;2023-08-07T00:47:56;11.30;99.90
76203;DHT22;64985;46.364;17.008;2023-08-07T00:50:59;11.40;99.90
76203;DHT22;64985;46.364;17.008;2023-08-07T00:54:02;11.30;99.90
76203;DHT22;64985;46.364;17.008;2023-08-07T00:57:13;11.30;99.90
76203;DHT22;64985;46.364;17.008;2023-08-07T01:00:17;11.30;99.90
76203;DHT22;64985;46.364;17.008;2023-08-07T01:03:20;11.30;99.90
76203;DHT22;64985;46.364;17.008;2023-08-07T01:06:22;11.30;99.90
76203;DHT22;64985;46.364;17.008;2023-08-07T01:09:25;11.30;99.90
76203;DHT22;64985;46.364;17.008;2023-08-07T01:12:30;11.30;99.90
76203;DHT22;64985;46.364;17.008;2023-08-07T01:15:36;11.20;99.90
76203;DHT22;64985;46.364;17.008;2023-08-07T01:18:40;11.10;99.90
76203;DHT22;64985;46.364;17.008;2023-08-07T01:21:48;11.20;99.90
76203;DHT22;64985;46.364;17.008;2023-08-07T01:24:50;11.20;99.90
76203;DHT22;64985;46.364;17.008;2023-08-07T01:28:00;11.10;99.90
76203;DHT22;64985;46.364;17.008;2023-08-07T01:31:06;11.00;99.90
76203;DHT22;64985;46.364;17.008;2023-08-07T01:34:10;11.00;99.90
76203;DHT22;64985;46.364;17.008;2023-08-07T01:37:14;11.00;99.90
76203;DHT22;64985;46.364;17.008;2023-08-07T01:40:17;11.10;99.90
76203;DHT22;64985;46.364;17.008;2023-08-07T01:43:21;11.00;99.90
76203;DHT22;64985;46.364;17.008;2023-08-07T01:46:23;11.00;99.90
76203;DHT22;64985;46.364;17.008;2023-08-07T01:49:25;10.90;99.90
76203;DHT22;64985;46.364;17.008;2023-08-07T01:52:27;11.00;99.90
76203;DHT22;64985;46.364;17.008;2023-08-07T01:55:29;11.00;99.90
76203;DHT22;64985;46.364;17.008;2023-08-07T01:58:32;11.10;99.90
76203;DHT22;64985;46.364;17.008;2023-08-07T02:01:34;11.10;99.90
76203;DHT22;64985;46.364;17.008;2023-08-07T02:04:36;11.10;99.90
76203;DHT22;64985;46.364;17.008;2023-08-07T02:07:38;10.90;99.90
76203;DHT22;64985;46.364;17.008;2023-08-07T02:10:40;10.80;99.90
76203;DHT22;64985;46.364;17.008;2023-08-07T02:13:42;10.80;99.90
76203;DHT22;64985;46.364;17.008;2023-08-07T02:16:44;10.70;99.90
76203;DHT22;64985;46.364;17.008;2023-08-07T02:19:47;10.70;99.90
76203;DHT22;64985;46.364;17.008;2023-08-07T02:22:49;10.70;99.90
76203;DHT22;64985;46.364;17.008;2023-08-07T02:25:51;10.70;99.90
76203;DHT22;64985;46.364;17.008;2023-08-07T02:28:53;10.70;99.90
76203;DHT22;64985;46.364;17.008;2023-08-07T02:31:56;10.70;99.90
76203;DHT22;64985;46.364;17.008;2023-08-07T02:34:58;10.70;99.90
76203;DHT22;64985;46.364;17.008;2023-08-07T02:38:00;10.60;99.90
76203;DHT22;64985;46.364;17.008;2023-08-07T02:41:03;10.60;99.90
76203;DHT22;64985;46.364;17.008;2023-08-07T02:44:05;10.60;99.90
76203;DHT22;64985;46.364;17.008;2023-08-07T02:47:07;10.60;99.90
76203;DHT22;64985;46.364;17.008;2023-08-07T02:50:09;10.60;99.90
76203;DHT22;64985;46.364;17.008;2023-08-07T02:53:11;10.50;99.90
76203;DHT22;64985;46.364;17.008;2023-08-07T02:56:13;10.40;99.90
76203;DHT22;64985;46.364;17.008;2023-08-07T02:59:16;10.50;99.90
76203;DHT22;64985;46.364;17.008;2023-08-07T03:02:18;10.40;99.90
76203;DHT22;64985;46.364;17.008;2023-08-07T03:05:20;10.40;99.90
76203;DHT22;64985;46.364;17.008;2023-08-07T03:08:22;10.40;99.90
76203;DHT22;64985;46.364;17.008;2023-08-07T03:11:24;10.50;99.90
76203;DHT22;64985;46.364;17.008;2023-08-07T03:14:26;10.60;99.90
76203;DHT22;64985;46.364;17.008;2023-08-07T03:17:29;10.70;99.90
76203;DHT22;64985;46.364;17.008;2023-08-07T03:20:31;10.80;99.90
76203;DHT22;64985;46.364;17.008;2023-08-07T03:23:33;10.80;99.90
76203;DHT22;64985;46.364;17.008;2023-08-07T03:26:35;10.90;99.90
76203;DHT22;64985;46.364;17.008;2023-08-07T03:29:37;10.90;99.90
76203;DHT22;64985;46.364;17.008;2023-08-07T03:32:39;11.00;99.90
76203;DHT22;64985;46.364;17.008;2023-08-07T03:35:43;11.10;99.90
76203;DHT22;64985;46.364;17.008;2023-08-07T03:38:45;11.10;99.90
76203;DHT22;64985;46.364;17.008;2023-08-07T03:41:48;11.10;99.90
76203;DHT22;64985;46.364;17.008;2023-08-07T03:44:50;11.10;99.90
76203;DHT22;64985;46.364;17.008;2023-08-07T03:47:53;11.00;99.90
76203;DHT22;64985;46.364;17.008;2023-08-07T03:51:08;11.00;99.90
76203;DHT22;64985;46.364;17.008;2023-08-07T03:54:29;11.00;99.90
76203;DHT22;64985;46.364;17.008;2023-08-07T03:57:31;11.10;99.90
76203;DHT22;64985;46.364;17.008;2023-08-07T04:00:33;11.10;99.90
76203;DHT22;64985;46.364;17.008;2023-08-07T04:03:35;11.20;99.90
76203;DHT22;64985;46.364;17.008;2023-08-07T04:06:38;11.20;99.90
76203;DHT22;64985;46.364;17.008;2023-08-07T04:09:40;11.20;99.90
76203;DHT22;64985;46.364;17.008;2023-08-07T04:12:43;11.20;99.90
76203;DHT22;64985;46.364;17.008;2023-08-07T04:15:45;11.20;99.90
76203;DHT22;64985;46.364;17.008;2023-08-07T04:18:47;11.20;99.90
76203;DHT22;64985;46.364;17.008;2023-08-07T04:21:49;11.20;99.90
76203;DHT22;64985;46.364;17.008;2023-08-07T04:24:51;11.30;99.90
76203;DHT22;64985;46.364;17.008;2023-08-07T04:27:53;11.30;99.90
76203;DHT22;64985;46.364;17.008;2023-08-07T04:30:56;11.40;99.90
76203;DHT22;64985;46.364;17.008;2023-08-07T04:33:58;11.40;99.90
76203;DHT22;64985;46.364;17.008;2023-08-07T04:37:00;11.50;99.90
76203;DHT22;64985;46.364;17.008;2023-08-07T04:40:03;11.60;99.90
76203;DHT22;64985;46.364;17.008;2023-08-07T04:43:06;11.80;99.90
76203;DHT22;64985;46.364;17.008;2023-08-07T04:46:09;12.00;99.90
76203;DHT22;64985;46.364;17.008;2023-08-07T04:49:11;12.10;99.90
76203;DHT22;64985;46.364;17.008;2023-08-07T04:52:14;12.30;99.90
76203;DHT22;64985;46.364;17.008;2023-08-07T04:55:27;12.50;99.90
76203;DHT22;64985;46.364;17.008;2023-08-07T04:58:29;12.60;99.90
76203;DHT22;64985;46.364;17.008;2023-08-07T05:01:31;12.60;99.90
76203;DHT22;64985;46.364;17.008;2023-08-07T05:04:33;12.70;99.90
76203;DHT22;64985;46.364;17.008;2023-08-07T05:07:35;12.90;99.90
76203;DHT22;64985;46.364;17.008;2023-08-07T05:10:37;13.00;99.90
76203;DHT22;64985;46.364;17.008;2023-08-07T05:13:39;13.00;99.90
76203;DHT22;64985;46.364;17.008;2023-08-07T05:16:41;13.20;99.90
76203;DHT22;64985;46.364;17.008;2023-08-07T05:19:44;13.30;99.90
76203;DHT22;64985;46.364;17.008;2023-08-07T05:22:46;13.30;99.90
76203;DHT22;64985;46.364;17.008;2023-08-07T05:25:48;13.30;99.90
76203;DHT22;64985;46.364;17.008;2023-08-07T05:28:50;13.30;99.90
76203;DHT22;64985;46.364;17.008;2023-08-07T05:31:52;13.20;99.90
76203;DHT22;64985;46.364;17.008;2023-08-07T05:34:55;13.20;99.90
76203;DHT22;64985;46.364;17.008;2023-08-07T05:37:57;13.20;99.90
76203;DHT22;64985;46.364;17.008;2023-08-07T05:40:59;13.20;99.90
76203;DHT22;64985;46.364;17.008;2023-08-07T05:44:01;13.20;99.90
76203;DHT22;64985;46.364;17.008;2023-08-07T05:47:04;13.10;99.90
76203;DHT22;64985;46.364;17.008;2023-08-07T05:50:06;13.10;99.90
76203;DHT22;64985;46.364;17.008;2023-08-07T05:53:09;13.10;99.90
76203;DHT22;64985;46.364;17.008;2023-08-07T05:56:11;13.30;99.90
76203;DHT22;64985;46.364;17.008;2023-08-07T05:59:13;13.60;99.90
76203;DHT22;64985;46.364;17.008;2023-08-07T06:02:15;14.20;99.90
76203;DHT22;64985;46.364;17.008;2023-08-07T06:05:17;14.40;99.90
76203;DHT22;64985;46.364;17.008;2023-08-07T06:08:19;14.60;99.90
76203;DHT22;64985;46.364;17.008;2023-08-07T06:11:22;15.00;99.90
76203;DHT22;64985;46.364;17.008;2023-08-07T06:14:24;15.60;99.90
76203;DHT22;64985;46.364;17.008;2023-08-07T06:17:27;16.20;99.90
76203;DHT22;64985;46.364;17.008;2023-08-07T06:20:29;16.60;99.90
76203;DHT22;64985;46.364;17.008;2023-08-07T06:23:35;17.00;99.90
76203;DHT22;64985;46.364;17.008;2023-08-07T06:26:37;17.50;99.90
76203;DHT22;64985;46.364;17.008;2023-08-07T06:29:39;17.70;99.90
76203;DHT22;64985;46.364;17.008;2023-08-07T06:32:41;18.10;99.90
76203;DHT22;64985;46.364;17.008;2023-08-07T06:35:44;18.40;99.90
76203;DHT22;64985;46.364;17.008;2023-08-07T06:38:46;18.80;99.90
76203;DHT22;64985;46.364;17.008;2023-08-07T06:41:48;19.40;99.90
76203;DHT22;64985;46.364;17.008;2023-08-07T06:44:50;19.60;99.90
76203;DHT22;64985;46.364;17.008;2023-08-07T06:47:52;20.10;99.90
76203;DHT22;64985;46.364;17.008;2023-08-07T06:50:54;20.40;99.90
76203;DHT22;64985;46.364;17.008;2023-08-07T06:53:56;20.70;93.00
76203;DHT22;64985;46.364;17.008;2023-08-07T06:56:59;20.90;94.70
76203;DHT22;64985;46.364;17.008;2023-08-07T07:00:01;21.10;94.90
76203;DHT22;64985;46.364;17.008;2023-08-07T07:03:03;21.20;94.90
76203;DHT22;64985;46.364;17.008;2023-08-07T07:06:06;21.50;91.90
76203;DHT22;64985;46.364;17.008;2023-08-07T07:09:08;21.70;84.30
76203;DHT22;64985;46.364;17.008;2023-08-07T07:12:10;22.00;83.00
76203;DHT22;64985;46.364;17.008;2023-08-07T07:15:12;22.00;89.30
76203;DHT22;64985;46.364;17.008;2023-08-07T07:18:15;22.40;77.00
76203;DHT22;64985;46.364;17.008;2023-08-07T07:21:17;23.60;76.20
76203;DHT22;64985;46.364;17.008;2023-08-07T07:24:20;22.50;76.60
76203;DHT22;64985;46.364;17.008;2023-08-07T07:27:22;22.50;78.20
76203;DHT22;64985;46.364;17.008;2023-08-07T07:30:24;22.50;80.70
76203;DHT22;64985;46.364;17.008;2023-08-07T07:33:26;23.00;77.00
76203;DHT22;64985;46.364;17.008;2023-08-07T07:36:29;23.20;75.90
76203;DHT22;64985;46.364;17.008;2023-08-07T07:39:32;22.60;76.80
76203;DHT22;64985;46.364;17.008;2023-08-07T07:42:34;22.40;78.10
76203;DHT22;64985;46.364;17.008;2023-08-07T07:45:36;21.50;80.80
76203;DHT22;64985;46.364;17.008;2023-08-07T07:48:38;21.10;83.40
76203;DHT22;64985;46.364;17.008;2023-08-07T07:51:40;21.20;79.40
76203;DHT22;64985;46.364;17.008;2023-08-07T07:54:42;21.40;82.00
76203;DHT22;64985;46.364;17.008;2023-08-07T07:57:44;21.60;76.50
76203;DHT22;64985;46.364;17.008;2023-08-07T08:00:47;21.70;78.00
76203;DHT22;64985;46.364;17.008;2023-08-07T08:03:49;21.40;78.80
76203;DHT22;64985;46.364;17.008;2023-08-07T08:06:51;21.30;77.40
76203;DHT22;64985;46.364;17.008;2023-08-07T08:09:54;21.30;78.70
76203;DHT22;64985;46.364;17.008;2023-08-07T08:12:56;21.20;76.90
76203;DHT22;64985;46.364;17.008;2023-08-07T08:15:58;21.20;72.90
76203;DHT22;64985;46.364;17.008;2023-08-07T08:19:00;21.60;70.30
76203;DHT22;64985;46.364;17.008;2023-08-07T08:22:04;22.40;65.00
76203;DHT22;64985;46.364;17.008;2023-08-07T08:25:07;22.90;64.90
76203;DHT22;64985;46.364;17.008;2023-08-07T08:28:09;23.70;61.80
76203;DHT22;64985;46.364;17.008;2023-08-07T08:31:11;23.60;61.90
76203;DHT22;64985;46.364;17.008;2023-08-07T08:34:14;23.60;63.10
76203;DHT22;64985;46.364;17.008;2023-08-07T08:37:16;23.00;61.30
76203;DHT22;64985;46.364;17.008;2023-08-07T08:40:19;23.50;61.80
76203;DHT22;64985;46.364;17.008;2023-08-07T08:43:21;23.10;62.90
76203;DHT22;64985;46.364;17.008;2023-08-07T08:46:24;23.30;67.10
76203;DHT22;64985;46.364;17.008;2023-08-07T08:49:33;24.40;65.60
76203;DHT22;64985;46.364;17.008;2023-08-07T08:52:38;25.50;69.40
76203;DHT22;64985;46.364;17.008;2023-08-07T08:55:41;25.10;63.30
76203;DHT22;64985;46.364;17.008;2023-08-07T08:58:45;24.10;60.80
76203;DHT22;64985;46.364;17.008;2023-08-07T09:01:51;24.10;68.30
76203;DHT22;64985;46.364;17.008;2023-08-07T09:04:54;24.70;66.80
76203;DHT22;64985;46.364;17.008;2023-08-07T09:07:56;24.20;60.70
76203;DHT22;64985;46.364;17.008;2023-08-07T09:10:59;23.90;67.70
76203;DHT22;64985;46.364;17.008;2023-08-07T09:14:02;23.20;63.30
76203;DHT22;64985;46.364;17.008;2023-08-07T09:17:05;22.60;65.70
76203;DHT22;64985;46.364;17.008;2023-08-07T09:20:08;22.60;74.60
76203;DHT22;64985;46.364;17.008;2023-08-07T09:23:16;23.30;72.40
76203;DHT22;64985;46.364;17.008;2023-08-07T09:26:22;23.50;66.00
76203;DHT22;64985;46.364;17.008;2023-08-07T09:29:27;23.30;67.80
76203;DHT22;64985;46.364;17.008;2023-08-07T09:32:30;23.30;70.80
76203;DHT22;64985;46.364;17.008;2023-08-07T09:35:32;23.40;71.00
76203;DHT22;64985;46.364;17.008;2023-08-07T09:38:35;23.80;69.20
76203;DHT22;64985;46.364;17.008;2023-08-07T09:41:37;23.60;69.30
76203;DHT22;64985;46.364;17.008;2023-08-07T09:44:40;23.50;70.60
76203;DHT22;64985;46.364;17.008;2023-08-07T09:47:42;23.60;66.10
76203;DHT22;64985;46.364;17.008;2023-08-07T09:50:46;23.30;68.80
76203;DHT22;64985;46.364;17.008;2023-08-07T09:53:48;22.80;60.00
76203;DHT22;64985;46.364;17.008;2023-08-07T09:56:55;23.30;60.80
76203;DHT22;64985;46.364;17.008;2023-08-07T10:00:00;24.40;57.20
76203;DHT22;64985;46.364;17.008;2023-08-07T10:03:02;24.90;61.30
76203;DHT22;64985;46.364;17.008;2023-08-07T10:06:05;24.90;52.70
76203;DHT22;64985;46.364;17.008;2023-08-07T10:09:07;25.30;52.30
76203;DHT22;64985;46.364;17.008;2023-08-07T10:12:11;24.00;52.40
76203;DHT22;64985;46.364;17.008;2023-08-07T10:15:14;23.50;60.00
76203;DHT22;64985;46.364;17.008;2023-08-07T10:18:17;24.00;63.00
76203;DHT22;64985;46.364;17.008;2023-08-07T10:21:19;24.50;56.30
76203;DHT22;64985;46.364;17.008;2023-08-07T10:24:23;24.70;58.50
76203;DHT22;64985;46.364;17.008;2023-08-07T10:27:26;25.40;62.20
76203;DHT22;64985;46.364;17.008;2023-08-07T10:30:29;25.90;58.10
76203;DHT22;64985;46.364;17.008;2023-08-07T10:33:33;26.20;60.10
76203;DHT22;64985;46.364;17.008;2023-08-07T10:36:36;26.30;54.70
76203;DHT22;64985;46.364;17.008;2023-08-07T10:40:00;26.10;54.90
76203;DHT22;64985;46.364;17.008;2023-08-07T10:43:14;25.90;55.00
76203;DHT22;64985;46.364;17.008;2023-08-07T10:46:22;25.10;52.00
76203;DHT22;64985;46.364;17.008;2023-08-07T10:49:52;24.60;48.70
76203;DHT22;64985;46.364;17.008;2023-08-07T10:52:54;24.70;53.90
76203;DHT22;64985;46.364;17.008;2023-08-07T10:55:57;24.40;50.70
76203;DHT22;64985;46.364;17.008;2023-08-07T10:59:08;24.50;50.20
76203;DHT22;64985;46.364;17.008;2023-08-07T11:02:12;24.30;50.00
76203;DHT22;64985;46.364;17.008;2023-08-07T11:05:15;24.40;58.30
76203;DHT22;64985;46.364;17.008;2023-08-07T11:08:22;25.10;54.40
76203;DHT22;64985;46.364;17.008;2023-08-07T11:11:24;25.40;55.60
76203;DHT22;64985;46.364;17.008;2023-08-07T11:14:26;25.20;55.20
76203;DHT22;64985;46.364;17.008;2023-08-07T11:17:29;25.10;51.30
76203;DHT22;64985;46.364;17.008;2023-08-07T11:20:32;25.40;53.60
76203;DHT22;64985;46.364;17.008;2023-08-07T11:23:34;26.60;51.20
76203;DHT22;64985;46.364;17.008;2023-08-07T11:26:37;26.30;47.10
76203;DHT22;64985;46.364;17.008;2023-08-07T11:29:39;25.70;46.30
76203;DHT22;64985;46.364;17.008;2023-08-07T11:32:42;26.20;51.10
76203;DHT22;64985;46.364;17.008;2023-08-07T11:35:45;26.30;46.40
76203;DHT22;64985;46.364;17.008;2023-08-07T11:38:47;26.10;46.90
76203;DHT22;64985;46.364;17.008;2023-08-07T11:41:50;25.80;51.70
76203;DHT22;64985;46.364;17.008;2023-08-07T11:44:54;26.20;49.90
76203;DHT22;64985;46.364;17.008;2023-08-07T11:47:56;25.60;53.80
76203;DHT22;64985;46.364;17.008;2023-08-07T11:51:00;25.30;49.80
76203;DHT22;64985;46.364;17.008;2023-08-07T11:54:03;24.60;50.50
76203;DHT22;64985;46.364;17.008;2023-08-07T11:57:16;24.60;50.90
76203;DHT22;64985;46.364;17.008;2023-08-07T12:00:19;24.20;48.30
76203;DHT22;64985;46.364;17.008;2023-08-07T12:03:26;24.00;47.40
76203;DHT22;64985;46.364;17.008;2023-08-07T12:06:29;24.10;49.60
76203;DHT22;64985;46.364;17.008;2023-08-07T12:09:31;24.20;51.40
76203;DHT22;64985;46.364;17.008;2023-08-07T12:12:36;24.20;49.30
76203;DHT22;64985;46.364;17.008;2023-08-07T12:15:39;24.00;51.30
76203;DHT22;64985;46.364;17.008;2023-08-07T12:18:48;24.00;54.10
76203;DHT22;64985;46.364;17.008;2023-08-07T12:21:51;23.80;48.90
76203;DHT22;64985;46.364;17.008;2023-08-07T12:24:53;24.10;52.70
76203;DHT22;64985;46.364;17.008;2023-08-07T12:27:55;23.90;50.80
76203;DHT22;64985;46.364;17.008;2023-08-07T12:30:58;24.10;50.50
76203;DHT22;64985;46.364;17.008;2023-08-07T12:34:00;24.30;50.10
76203;DHT22;64985;46.364;17.008;2023-08-07T12:37:22;25.10;52.10
76203;DHT22;64985;46.364;17.008;2023-08-07T12:40:25;25.50;53.80
76203;DHT22;64985;46.364;17.008;2023-08-07T12:43:30;26.20;50.90
76203;DHT22;64985;46.364;17.008;2023-08-07T12:46:32;26.50;50.40
76203;DHT22;64985;46.364;17.008;2023-08-07T12:49:38;25.50;54.00
76203;DHT22;64985;46.364;17.008;2023-08-07T12:52:40;25.60;48.50
76203;DHT22;64985;46.364;17.008;2023-08-07T12:55:42;25.40;52.80
76203;DHT22;64985;46.364;17.008;2023-08-07T12:58:44;25.00;47.80
76203;DHT22;64985;46.364;17.008;2023-08-07T13:01:47;24.20;51.70
76203;DHT22;64985;46.364;17.008;2023-08-07T13:04:49;23.60;50.20
76203;DHT22;64985;46.364;17.008;2023-08-07T13:07:52;23.00;49.00
76203;DHT22;64985;46.364;17.008;2023-08-07T13:11:03;22.30;48.10
76203;DHT22;64985;46.364;17.008;2023-08-07T13:14:05;21.80;48.80
76203;DHT22;64985;46.364;17.008;2023-08-07T13:17:08;21.70;52.50
76203;DHT22;64985;46.364;17.008;2023-08-07T13:20:11;21.50;58.00
76203;DHT22;64985;46.364;17.008;2023-08-07T13:23:15;21.90;60.30
76203;DHT22;64985;46.364;17.008;2023-08-07T13:26:17;22.60;60.30
76203;DHT22;64985;46.364;17.008;2023-08-07T13:29:19;23.30;56.60
76203;DHT22;64985;46.364;17.008;2023-08-07T13:32:22;24.20;56.00
76203;DHT22;64985;46.364;17.008;2023-08-07T13:35:24;25.00;58.50
76203;DHT22;64985;46.364;17.008;2023-08-07T13:38:26;25.60;54.70
76203;DHT22;64985;46.364;17.008;2023-08-07T13:41:28;25.90;52.80
76203;DHT22;64985;46.364;17.008;2023-08-07T13:44:30;25.80;56.00
76203;DHT22;64985;46.364;17.008;2023-08-07T13:47:33;25.80;51.80
76203;DHT22;64985;46.364;17.008;2023-08-07T13:50:36;26.10;52.30
76203;DHT22;64985;46.364;17.008;2023-08-07T13:53:41;26.10;54.60
76203;DHT22;64985;46.364;17.008;2023-08-07T13:56:44;26.10;51.00
76203;DHT22;64985;46.364;17.008;2023-08-07T13:59:46;25.40;50.30
76203;DHT22;64985;46.364;17.008;2023-08-07T14:02:50;25.20;52.90
76203;DHT22;64985;46.364;17.008;2023-08-07T14:05:53;25.40;53.90
76203;DHT22;64985;46.364;17.008;2023-08-07T14:08:56;25.00;53.40
76203;DHT22;64985;46.364;17.008;2023-08-07T14:11:58;24.60;55.90
76203;DHT22;64985;46.364;17.008;2023-08-07T14:15:01;24.20;55.90
76203;DHT22;64985;46.364;17.008;2023-08-07T14:18:03;23.30;55.00
76203;DHT22;64985;46.364;17.008;2023-08-07T14:21:06;23.00;54.50
76203;DHT22;64985;46.364;17.008;2023-08-07T14:24:08;23.00;57.00
76203;DHT22;64985;46.364;17.008;2023-08-07T14:27:10;22.80;60.20
76203;DHT22;64985;46.364;17.008;2023-08-07T14:30:12;23.30;59.00
76203;DHT22;64985;46.364;17.008;2023-08-07T14:33:14;24.30;57.80
76203;DHT22;64985;46.364;17.008;2023-08-07T14:36:16;24.90;58.60
76203;DHT22;64985;46.364;17.008;2023-08-07T14:39:19;25.20;54.80
76203;DHT22;64985;46.364;17.008;2023-08-07T14:42:23;25.00;57.70
76203;DHT22;64985;46.364;17.008;2023-08-07T14:45:25;25.00;56.00
76203;DHT22;64985;46.364;17.008;2023-08-07T14:48:27;24.60;54.40
76203;DHT22;64985;46.364;17.008;2023-08-07T14:51:29;24.40;52.00
76203;DHT22;64985;46.364;17.008;2023-08-07T14:54:31;23.90;53.00
76203;DHT22;64985;46.364;17.008;2023-08-07T14:57:35;23.60;52.20
76203;DHT22;64985;46.364;17.008;2023-08-07T15:00:37;23.30;54.90
76203;DHT22;64985;46.364;17.008;2023-08-07T15:03:39;22.80;53.30
76203;DHT22;64985;46.364;17.008;2023-08-07T15:06:41;22.40;53.00
76203;DHT22;64985;46.364;17.008;2023-08-07T15:09:44;22.60;53.50
76203;DHT22;64985;46.364;17.008;2023-08-07T15:12:46;22.40;53.40
76203;DHT22;64985;46.364;17.008;2023-08-07T15:15:48;22.20;54.90
76203;DHT22;64985;46.364;17.008;2023-08-07T15:18:51;21.90;54.50
76203;DHT22;64985;46.364;17.008;2023-08-07T15:21:53;21.90;59.20
76203;DHT22;64985;46.364;17.008;2023-08-07T15:24:55;21.60;56.50
76203;DHT22;64985;46.364;17.008;2023-08-07T15:27:57;21.50;53.60
76203;DHT22;64985;46.364;17.008;2023-08-07T15:31:02;21.60;54.80
76203;DHT22;64985;46.364;17.008;2023-08-07T15:34:04;21.60;59.50
76203;DHT22;64985;46.364;17.008;2023-08-07T15:37:07;21.50;55.80
76203;DHT22;64985;46.364;17.008;2023-08-07T15:40:09;21.40;58.20
76203;DHT22;64985;46.364;17.008;2023-08-07T15:43:12;21.20;55.80
76203;DHT22;64985;46.364;17.008;2023-08-07T15:46:14;21.10;59.20
76203;DHT22;64985;46.364;17.008;2023-08-07T15:49:17;21.00;57.10
76203;DHT22;64985;46.364;17.008;2023-08-07T15:52:20;20.80;56.10
76203;DHT22;64985;46.364;17.008;2023-08-07T15:55:23;20.60;53.80
76203;DHT22;64985;46.364;17.008;2023-08-07T15:58:25;20.40;55.30
76203;DHT22;64985;46.364;17.008;2023-08-07T16:01:28;20.80;57.20
76203;DHT22;64985;46.364;17.008;2023-08-07T16:04:30;21.60;54.90
76203;DHT22;64985;46.364;17.008;2023-08-07T16:07:33;22.00;55.10
76203;DHT22;64985;46.364;17.008;2023-08-07T16:10:35;22.40;54.60
76203;DHT22;64985;46.364;17.008;2023-08-07T16:13:38;22.10;54.00
76203;DHT22;64985;46.364;17.008;2023-08-07T16:16:40;21.60;52.50
76203;DHT22;64985;46.364;17.008;2023-08-07T16:19:42;21.60;56.60
76203;DHT22;64985;46.364;17.008;2023-08-07T16:22:45;21.00;56.50
76203;DHT22;64985;46.364;17.008;2023-08-07T16:25:48;20.60;52.90
76203;DHT22;64985;46.364;17.008;2023-08-07T16:28:50;20.20;58.70
76203;DHT22;64985;46.364;17.008;2023-08-07T16:31:53;19.80;56.00
76203;DHT22;64985;46.364;17.008;2023-08-07T16:34:58;19.60;57.90
76203;DHT22;64985;46.364;17.008;2023-08-07T16:38:00;19.40;64.20
76203;DHT22;64985;46.364;17.008;2023-08-07T16:41:04;19.30;65.70
76203;DHT22;64985;46.364;17.008;2023-08-07T16:44:07;19.30;64.20
76203;DHT22;64985;46.364;17.008;2023-08-07T16:47:09;19.20;65.50
76203;DHT22;64985;46.364;17.008;2023-08-07T16:50:12;19.20;64.30
76203;DHT22;64985;46.364;17.008;2023-08-07T16:53:15;19.20;65.00
76203;DHT22;64985;46.364;17.008;2023-08-07T16:56:18;19.10;70.70
76203;DHT22;64985;46.364;17.008;2023-08-07T16:59:20;19.10;67.50
76203;DHT22;64985;46.364;17.008;2023-08-07T17:02:22;19.20;70.30
76203;DHT22;64985;46.364;17.008;2023-08-07T17:05:26;19.10;74.70
76203;DHT22;64985;46.364;17.008;2023-08-07T17:08:30;19.00;76.50
76203;DHT22;64985;46.364;17.008;2023-08-07T17:11:34;19.00;82.10
76203;DHT22;64985;46.364;17.008;2023-08-07T17:14:36;18.90;81.70
76203;DHT22;64985;46.364;17.008;2023-08-07T17:17:39;18.80;76.30
76203;DHT22;64985;46.364;17.008;2023-08-07T17:20:41;18.70;83.80
76203;DHT22;64985;46.364;17.008;2023-08-07T17:23:44;18.60;82.50
76203;DHT22;64985;46.364;17.008;2023-08-07T17:26:47;18.40;87.10
76203;DHT22;64985;46.364;17.008;2023-08-07T17:29:49;18.30;88.10
76203;DHT22;64985;46.364;17.008;2023-08-07T17:32:52;18.20;90.90
76203;DHT22;64985;46.364;17.008;2023-08-07T17:35:55;18.00;92.90
76203;DHT22;64985;46.364;17.008;2023-08-07T17:38:57;17.90;96.50
76203;DHT22;64985;46.364;17.008;2023-08-07T17:42:03;17.80;96.30
76203;DHT22;64985;46.364;17.008;2023-08-07T17:45:06;17.60;94.20
76203;DHT22;64985;46.364;17.008;2023-08-07T17:48:09;17.50;94.70
76203;DHT22;64985;46.364;17.008;2023-08-07T17:51:12;17.40;99.60
76203;DHT22;64985;46.364;17.008;2023-08-07T17:54:15;17.20;98.50
76203;DHT22;64985;46.364;17.008;2023-08-07T17:57:17;17.10;99.90
76203;DHT22;64985;46.364;17.008;2023-08-07T18:00:20;16.90;99.90
76203;DHT22;64985;46.364;17.008;2023-08-07T18:03:23;16.80;99.90
76203;DHT22;64985;46.364;17.008;2023-08-07T18:06:29;16.70;99.90
76203;DHT22;64985;46.364;17.008;2023-08-07T18:09:31;16.70;99.90
76203;DHT22;64985;46.364;17.008;2023-08-07T18:12:33;16.60;99.90
76203;DHT22;64985;46.364;17.008;2023-08-07T18:15:36;16.50;99.90
76203;DHT22;64985;46.364;17.008;2023-08-07T18:18:39;16.20;99.90
76203;DHT22;64985;46.364;17.008;2023-08-07T18:21:42;16.20;99.90
76203;DHT22;64985;46.364;17.008;2023-08-07T18:24:45;16.10;99.90
76203;DHT22;64985;46.364;17.008;2023-08-07T18:27:47;16.00;99.90
76203;DHT22;64985;46.364;17.008;2023-08-07T18:30:51;16.00;99.90
76203;DHT22;64985;46.364;17.008;2023-08-07T18:33:55;15.80;99.90
76203;DHT22;64985;46.364;17.008;2023-08-07T18:36:57;15.60;99.90
76203;DHT22;64985;46.364;17.008;2023-08-07T18:40:00;15.50;99.90
76203;DHT22;64985;46.364;17.008;2023-08-07T18:43:04;15.50;99.90
76203;DHT22;64985;46.364;17.008;2023-08-07T18:46:06;15.50;99.90
76203;DHT22;64985;46.364;17.008;2023-08-07T18:49:09;15.40;99.90
76203;DHT22;64985;46.364;17.008;2023-08-07T18:52:11;15.40;99.90
76203;DHT22;64985;46.364;17.008;2023-08-07T18:55:14;15.40;99.90
76203;DHT22;64985;46.364;17.008;2023-08-07T18:58:17;15.30;99.90